Time;durP1;ratioP1;P1;durP2;ratioP2;P2;SDS_P1;SDS_P2;PMS_P1;PMS_P2;Temp;Humidity;BMP_temperature;BMP_pressure;BME280_temperature;BME280_humidity;BME280_pressure;Samples;Min_cycle;Max_cycle;Signal;HPM_P1;HPM_P2
2022/12/08 00:00:47;;;;;;;3.88;2.10;;;7.20;99.90;;;;;;4989436;28;20110;-86
2022/12/08 00:03:13;;;;;;;3.60;2.20;;;7.20;99.90;;;;;;4991362;28;20025;-86
2022/12/08 00:11:13;;;;;;;5.28;2.50;;;7.10;99.90;;;;;;5027543;28;20253;-86
2022/12/08 00:13:39;;;;;;;4.43;2.20;;;7.10;99.90;;;;;;4991822;28;20595;-86
2022/12/08 00:16:05;;;;;;;5.77;2.90;;;7.10;99.90;;;;;;5005531;28;20029;-86
2022/12/08 00:18:31;;;;;;;5.68;3.20;;;7.10;99.90;;;;;;4958034;28;20519;-86
2022/12/08 00:20:57;;;;;;;6.03;3.10;;;7.10;99.90;;;;;;4998047;28;20021;-86
2022/12/08 00:23:24;;;;;;;4.85;2.75;;;7.00;99.90;;;;;;4973136;28;20029;-86
2022/12/08 00:25:49;;;;;;;6.60;3.10;;;7.00;99.90;;;;;;5021589;28;20033;-86
2022/12/08 00:28:15;;;;;;;6.13;3.38;;;7.00;99.90;;;;;;5014095;28;20265;-86
2022/12/08 00:30:42;;;;;;;7.05;3.60;;;7.00;99.90;;;;;;5000674;28;20143;-86
2022/12/08 00:33:08;;;;;;;5.83;3.40;;;7.00;99.90;;;;;;4983727;28;20269;-86
2022/12/08 00:35:34;;;;;;;6.07;3.30;;;7.00;99.90;;;;;;4997256;28;20029;-86
2022/12/08 00:38:00;;;;;;;6.65;3.60;;;7.00;99.90;;;;;;4987009;28;20057;-86
2022/12/08 00:40:25;;;;;;;8.27;4.00;;;7.00;99.90;;;;;;5011614;28;20050;-86
2022/12/08 00:42:51;;;;;;;8.10;4.13;;;7.00;99.90;;;;;;5010424;28;20056;-85
2022/12/08 00:45:17;;;;;;;7.97;4.25;;;6.90;99.90;;;;;;4999232;28;21269;-86
2022/12/08 00:47:42;;;;;;;6.97;3.80;;;6.90;99.90;;;;;;4999424;28;20060;-86
2022/12/08 00:50:09;;;;;;;8.35;4.22;;;6.90;99.90;;;;;;4974945;28;20534;-85
2022/12/08 00:52:35;;;;;;;7.35;4.10;;;6.90;99.90;;;;;;4997547;28;20044;-86
2022/12/08 00:55:00;;;;;;;10.20;4.90;;;6.90;99.90;;;;;;4965076;28;20033;-85
2022/12/08 00:57:26;;;;;;;7.80;4.22;;;6.90;99.90;;;;;;5029308;28;20013;-86
2022/12/08 00:59:52;;;;;;;7.57;4.10;;;6.90;99.90;;;;;;4991934;28;20118;-86
2022/12/08 01:02:17;;;;;;;8.45;4.20;;;6.90;99.90;;;;;;5002578;28;20177;-85
2022/12/08 01:04:43;;;;;;;8.37;4.50;;;6.90;99.90;;;;;;4982092;28;20045;-86
2022/12/08 01:07:09;;;;;;;9.18;4.68;;;6.90;99.90;;;;;;4981331;28;20103;-86
2022/12/08 01:09:34;;;;;;;8.33;4.20;;;6.90;99.90;;;;;;4967160;28;20031;-86
2022/12/08 01:12:00;;;;;;;8.18;4.15;;;6.90;99.90;;;;;;5009164;28;20028;-85
2022/12/08 01:14:26;;;;;;;7.87;4.30;;;6.90;99.90;;;;;;4991700;28;20024;-85
2022/12/08 01:16:52;;;;;;;6.95;4.15;;;6.80;99.90;;;;;;4983917;28;20120;-86
2022/12/08 01:19:18;;;;;;;8.25;4.35;;;6.80;99.90;;;;;;4998215;28;20115;-86
2022/12/08 01:21:44;;;;;;;8.43;4.20;;;6.80;99.90;;;;;;5015413;28;20120;-85
2022/12/08 01:24:12;;;;;;;7.43;4.45;;;6.80;99.90;;;;;;4970393;28;20018;-85
2022/12/08 01:26:38;;;;;;;9.25;4.95;;;6.70;99.90;;;;;;4997128;28;20036;-86
2022/12/08 01:29:04;;;;;;;8.10;4.57;;;6.70;99.90;;;;;;4983411;28;20022;-85
2022/12/08 01:31:29;;;;;;;10.13;5.10;;;6.70;99.90;;;;;;5011362;28;20548;-85
2022/12/08 01:33:55;;;;;;;8.83;4.40;;;6.60;99.90;;;;;;4983732;28;20307;-86
2022/12/08 01:36:24;;;;;;;9.95;4.90;;;6.60;99.90;;;;;;5000334;28;20114;-85
2022/12/08 01:38:51;;;;;;;8.38;4.88;;;6.60;99.90;;;;;;4994080;28;20043;-86
2022/12/08 01:41:19;;;;;;;9.38;5.05;;;6.60;99.90;;;;;;4999778;28;20116;-85
2022/12/08 01:43:53;;;;;;;10.27;5.65;;;6.50;99.90;;;;;;5006557;28;20391;-86
2022/12/08 01:46:18;;;;;;;9.87;4.70;;;6.50;99.90;;;;;;5027993;28;20026;-86
2022/12/08 01:48:44;;;;;;;11.38;5.95;;;6.50;99.90;;;;;;4982083;28;20437;-85
2022/12/08 01:51:10;;;;;;;8.07;4.67;;;6.40;99.90;;;;;;4979363;28;20071;-86
2022/12/08 01:53:36;;;;;;;9.82;5.03;;;6.40;99.90;;;;;;4978754;28;20033;-85
2022/12/08 01:56:08;;;;;;;11.65;5.72;;;6.40;99.90;;;;;;4968627;28;21663;-86
2022/12/08 01:58:38;;;;;;;10.53;5.43;;;6.50;99.90;;;;;;4996411;28;20021;-85
2022/12/08 02:01:05;;;;;;;11.52;4.85;;;6.40;99.90;;;;;;4991863;28;20097;-88
2022/12/08 02:03:35;;;;;;;10.27;4.90;;;6.40;99.90;;;;;;4999018;28;20021;-89
2022/12/08 02:06:02;;;;;;;9.43;4.85;;;6.40;99.90;;;;;;5001043;28;20731;-88
2022/12/08 02:08:29;;;;;;;8.20;4.32;;;6.40;99.90;;;;;;5002612;28;20116;-90
2022/12/08 02:10:55;;;;;;;8.53;4.63;;;6.40;99.90;;;;;;5010616;28;20217;-89
2022/12/08 02:13:22;;;;;;;9.27;4.47;;;6.40;99.90;;;;;;4969591;28;20056;-89
2022/12/08 02:16:23;;;;;;;11.77;5.68;;;6.30;99.90;;;;;;4993097;28;20041;-89
2022/12/08 02:18:54;;;;;;;9.50;4.87;;;6.30;99.90;;;;;;4940812;28;20235;-88
2022/12/08 02:21:32;;;;;;;9.68;4.95;;;6.30;99.90;;;;;;4988726;28;20092;-89
2022/12/08 02:24:13;;;;;;;9.35;4.90;;;6.30;99.90;;;;;;4999738;28;20181;-88
2022/12/08 02:27:02;;;;;;;8.75;4.90;;;6.20;99.90;;;;;;4991841;28;20155;-88
2022/12/08 02:29:43;;;;;;;10.35;5.20;;;6.20;99.90;;;;;;4976007;28;20021;-89
2022/12/08 02:32:33;;;;;;;11.37;5.87;;;6.20;99.90;;;;;;5008653;28;20500;-89
2022/12/08 02:35:14;;;;;;;10.20;5.50;;;6.20;99.90;;;;;;4998374;28;20596;-89
2022/12/08 02:37:48;;;;;;;11.40;5.47;;;6.20;99.90;;;;;;4996302;28;20017;-88
2022/12/08 02:40:21;;;;;;;9.68;4.93;;;6.10;99.90;;;;;;4987383;28;20022;-89
2022/12/08 02:42:56;;;;;;;9.30;4.90;;;6.10;99.90;;;;;;5015021;28;20177;-88
2022/12/08 02:45:37;;;;;;;11.63;5.67;;;6.10;99.90;;;;;;5003254;28;20499;-89
2022/12/08 02:48:03;;;;;;;11.45;5.72;;;6.10;99.90;;;;;;5026394;28;20056;-89
2022/12/08 02:50:29;;;;;;;8.95;5.10;;;6.00;99.90;;;;;;5012094;28;20098;-89
2022/12/08 02:52:54;;;;;;;9.70;4.83;;;6.00;99.90;;;;;;4995466;28;20029;-89
2022/12/08 02:55:24;;;;;;;11.87;5.27;;;6.00;99.90;;;;;;4993579;28;21208;-88
2022/12/08 02:58:05;;;;;;;8.73;4.70;;;5.90;99.90;;;;;;4991911;28;20025;-90
2022/12/08 03:00:52;;;;;;;10.15;4.88;;;5.90;99.90;;;;;;4963939;28;20720;-88
2022/12/08 03:03:40;;;;;;;9.27;4.60;;;5.90;99.90;;;;;;4995029;28;21048;-89
2022/12/08 03:06:39;;;;;;;10.07;4.90;;;5.80;99.90;;;;;;4977747;28;20060;-89
2022/12/08 03:09:26;;;;;;;9.48;4.63;;;5.80;99.90;;;;;;5004840;28;20615;-89
2022/12/08 03:11:57;;;;;;;9.98;4.57;;;5.70;99.90;;;;;;4997772;28;20017;-89
2022/12/08 03:14:23;;;;;;;10.93;5.75;;;5.60;99.90;;;;;;4988206;28;20446;-89
2022/12/08 03:16:54;;;;;;;8.37;4.57;;;5.60;99.90;;;;;;4969615;28;20024;-89
2022/12/08 03:19:25;;;;;;;8.93;4.57;;;5.60;99.90;;;;;;4989028;28;20053;-89
2022/12/08 03:22:01;;;;;;;9.82;5.05;;;5.60;99.90;;;;;;4989445;28;20064;-87
2022/12/08 03:24:32;;;;;;;10.23;5.03;;;5.60;99.90;;;;;;4972518;28;20029;-88
2022/12/08 03:27:06;;;;;;;9.73;5.00;;;5.60;99.90;;;;;;4988779;28;20131;-89
2022/12/08 03:29:32;;;;;;;10.70;5.30;;;5.60;99.90;;;;;;4993180;28;20063;-89
2022/12/08 03:32:06;;;;;;;10.23;5.00;;;5.50;99.90;;;;;;4983584;28;20028;-89
2022/12/08 03:34:34;;;;;;;11.57;5.50;;;5.50;99.90;;;;;;5025067;28;20021;-89
2022/12/08 03:37:01;;;;;;;12.05;5.55;;;5.50;99.90;;;;;;5000528;28;20187;-88
2022/12/08 03:39:27;;;;;;;10.25;5.25;;;5.50;99.90;;;;;;4997272;28;20036;-89
2022/12/08 03:41:52;;;;;;;9.60;4.73;;;5.50;99.90;;;;;;4976629;28;20603;-88
2022/12/08 03:44:18;;;;;;;11.18;5.35;;;5.50;99.90;;;;;;5011801;28;20333;-88
2022/12/08 03:46:44;;;;;;;9.30;5.07;;;5.50;99.90;;;;;;4969705;28;20763;-89
2022/12/08 03:49:10;;;;;;;12.15;5.57;;;5.40;99.90;;;;;;4997212;28;20432;-89
2022/12/08 03:51:36;;;;;;;9.70;5.10;;;5.50;99.90;;;;;;5012225;28;20021;-89
2022/12/08 03:54:03;;;;;;;9.43;4.63;;;5.50;99.90;;;;;;4981074;28;20026;-89
2022/12/08 03:56:36;;;;;;;8.37;4.30;;;5.50;99.90;;;;;;5012254;28;20060;-89
2022/12/08 03:59:03;;;;;;;10.02;4.95;;;5.50;99.90;;;;;;4996544;28;20229;-89
2022/12/08 04:01:29;;;;;;;9.40;4.78;;;5.50;99.90;;;;;;4995520;28;20021;-88
2022/12/08 04:03:55;;;;;;;10.95;5.30;;;5.50;99.90;;;;;;4989671;28;20025;-89
2022/12/08 04:06:22;;;;;;;8.83;4.70;;;5.50;99.90;;;;;;5013944;28;20086;-89
2022/12/08 04:08:49;;;;;;;9.57;4.80;;;5.60;99.90;;;;;;4985809;28;20669;-89
2022/12/08 04:11:14;;;;;;;9.70;4.65;;;5.60;99.90;;;;;;5012795;28;20021;-89
2022/12/08 04:13:41;;;;;;;8.43;4.50;;;5.60;99.90;;;;;;4995137;28;20036;-89
2022/12/08 04:16:07;;;;;;;9.25;4.53;;;5.70;99.90;;;;;;4992122;28;20639;-90
2022/12/08 04:18:34;;;;;;;9.40;4.45;;;5.70;99.90;;;;;;4984278;28;20029;-89
2022/12/08 04:21:00;;;;;;;10.10;4.88;;;5.70;99.90;;;;;;4988103;28;20305;-89
2022/12/08 04:23:26;;;;;;;8.00;4.50;;;5.80;99.90;;;;;;5015322;28;20077;-88
2022/12/08 04:25:52;;;;;;;9.10;4.63;;;5.80;99.90;;;;;;4977554;28;20158;-88
2022/12/08 04:28:18;;;;;;;8.57;4.35;;;5.80;99.90;;;;;;4994866;28;20651;-89
2022/12/08 04:30:44;;;;;;;9.30;4.40;;;5.90;99.90;;;;;;4977945;28;20101;-89
2022/12/08 04:33:10;;;;;;;8.43;4.28;;;5.90;99.90;;;;;;5007814;28;20359;-89
2022/12/08 04:35:35;;;;;;;8.48;4.70;;;6.00;99.90;;;;;;4964453;28;20390;-89
2022/12/08 04:38:02;;;;;;;9.17;4.40;;;6.00;99.90;;;;;;5013300;28;20483;-90
2022/12/08 04:40:28;;;;;;;7.85;3.80;;;6.00;99.90;;;;;;4994296;28;21397;-90
2022/12/08 04:42:53;;;;;;;7.60;4.00;;;6.00;99.90;;;;;;5008391;28;20052;-89
2022/12/08 04:45:19;;;;;;;6.23;3.27;;;6.00;99.90;;;;;;4979296;28;20553;-89
2022/12/08 04:47:45;;;;;;;7.28;3.75;;;6.10;99.90;;;;;;4990417;28;20017;-88
2022/12/08 04:50:12;;;;;;;7.05;3.60;;;6.10;99.90;;;;;;4971315;28;20266;-90
2022/12/08 04:52:38;;;;;;;7.20;4.18;;;6.10;99.90;;;;;;4992239;28;20532;-89
2022/12/08 04:55:04;;;;;;;7.17;3.40;;;6.10;99.90;;;;;;5006141;28;20535;-89
2022/12/08 04:57:30;;;;;;;6.75;3.60;;;6.10;99.90;;;;;;5005032;28;20521;-89
2022/12/08 04:59:56;;;;;;;7.15;3.38;;;6.10;99.90;;;;;;5015523;28;20201;-87
2022/12/08 05:02:22;;;;;;;6.83;3.70;;;6.10;99.90;;;;;;5005121;28;20116;-90
2022/12/08 05:04:47;;;;;;;7.93;4.10;;;6.20;99.90;;;;;;5007392;28;20602;-89
2022/12/08 05:07:13;;;;;;;6.17;3.43;;;6.20;99.90;;;;;;4997417;28;20112;-89
2022/12/08 05:09:39;;;;;;;5.57;3.00;;;6.20;99.90;;;;;;5008002;28;20051;-89
2022/12/08 05:12:05;;;;;;;5.47;2.80;;;6.20;99.90;;;;;;5017509;28;20045;-89
2022/12/08 05:14:30;;;;;;;5.22;3.10;;;6.20;99.90;;;;;;4993933;28;20071;-89
2022/12/08 05:16:56;;;;;;;4.17;2.40;;;6.20;99.90;;;;;;4980500;28;20186;-89
2022/12/08 05:19:21;;;;;;;5.88;2.80;;;6.20;99.90;;;;;;5011691;28;20036;-88
2022/12/08 05:21:47;;;;;;;4.73;2.50;;;6.20;99.90;;;;;;4972521;28;20032;-88
2022/12/08 05:24:13;;;;;;;4.20;2.40;;;6.20;99.90;;;;;;4993259;28;20028;-89
2022/12/08 05:26:39;;;;;;;5.17;2.77;;;6.20;99.90;;;;;;4994134;28;20036;-89
2022/12/08 05:29:04;;;;;;;5.40;2.83;;;6.20;99.90;;;;;;4995718;28;20619;-89
2022/12/08 05:31:30;;;;;;;6.10;3.17;;;6.20;99.90;;;;;;4990624;28;20053;-90
2022/12/08 05:33:56;;;;;;;5.78;3.22;;;6.20;99.90;;;;;;4979874;28;20830;-89
2022/12/08 05:36:21;;;;;;;6.63;3.37;;;6.20;99.90;;;;;;5012738;28;20465;-90
2022/12/08 05:38:47;;;;;;;6.35;3.40;;;6.20;99.90;;;;;;4961994;28;20032;-90
2022/12/08 05:41:16;;;;;;;7.27;4.00;;;6.10;99.90;;;;;;4992906;28;20013;-89
2022/12/08 05:43:41;;;;;;;8.00;4.47;;;6.10;99.90;;;;;;4993030;28;20128;-89
2022/12/08 05:46:08;;;;;;;7.55;4.00;;;6.10;99.90;;;;;;4982606;28;20025;-89
2022/12/08 05:48:34;;;;;;;8.13;3.93;;;6.10;99.90;;;;;;5020197;28;20067;-88
2022/12/08 05:51:00;;;;;;;9.73;5.05;;;6.10;99.90;;;;;;4993458;28;20247;-89
2022/12/08 05:53:26;;;;;;;8.95;4.35;;;6.10;99.90;;;;;;4968775;28;20040;-89
2022/12/08 05:55:52;;;;;;;9.00;4.30;;;6.00;99.90;;;;;;5006828;28;20707;-89
2022/12/08 05:58:19;;;;;;;9.82;4.63;;;6.00;99.90;;;;;;4988332;28;20560;-88
2022/12/08 06:00:46;;;;;;;9.85;5.25;;;6.00;99.90;;;;;;4988669;28;20505;-88
2022/12/08 06:03:13;;;;;;;10.33;5.33;;;6.00;99.90;;;;;;4978088;28;20307;-90
2022/12/08 06:05:41;;;;;;;11.13;5.78;;;5.90;99.90;;;;;;4978648;28;20262;-88
2022/12/08 06:08:07;;;;;;;10.25;5.43;;;5.90;99.90;;;;;;4951998;28;20309;-87
2022/12/08 06:10:32;;;;;;;10.57;5.40;;;5.90;99.90;;;;;;4994427;28;20222;-89
2022/12/08 06:12:58;;;;;;;10.80;5.13;;;5.80;99.90;;;;;;4986676;28;20029;-89
2022/12/08 06:15:24;;;;;;;10.00;5.53;;;5.80;99.90;;;;;;4970438;28;20883;-89
2022/12/08 06:17:50;;;;;;;8.93;5.07;;;5.80;99.90;;;;;;5025059;28;20655;-89
2022/12/08 06:20:16;;;;;;;10.60;5.30;;;5.80;99.90;;;;;;4976778;28;20437;-89
2022/12/08 06:22:42;;;;;;;9.60;5.17;;;5.80;99.90;;;;;;4950039;28;20776;-87
2022/12/08 06:25:08;;;;;;;11.20;5.07;;;5.70;99.90;;;;;;5008379;28;20623;-88
2022/12/08 06:27:34;;;;;;;11.40;5.10;;;5.70;99.90;;;;;;4989663;28;20682;-89
2022/12/08 06:29:59;;;;;;;10.80;5.07;;;5.70;99.90;;;;;;4982572;28;20025;-89
2022/12/08 06:32:25;;;;;;;9.87;5.33;;;5.70;99.90;;;;;;4960944;28;20238;-89
2022/12/08 06:34:51;;;;;;;9.25;5.05;;;5.70;99.90;;;;;;4984782;28;20868;-88
2022/12/08 06:37:17;;;;;;;11.07;5.25;;;5.70;99.90;;;;;;4966527;28;20028;-88
2022/12/08 06:39:43;;;;;;;9.95;5.00;;;5.70;99.90;;;;;;4980693;28;20025;-89
2022/12/08 06:44:53;;;;;;;11.32;5.68;;;5.60;99.90;;;;;;5012621;28;20028;-89
2022/12/08 06:47:22;;;;;;;11.57;5.40;;;5.60;99.90;;;;;;4994754;28;20222;-87
2022/12/08 06:49:47;;;;;;;10.35;5.60;;;5.60;99.90;;;;;;5005431;28;20122;-89
2022/12/08 06:52:14;;;;;;;10.77;5.85;;;5.60;99.90;;;;;;5001542;28;20017;-88
2022/12/08 06:54:39;;;;;;;15.20;6.20;;;5.60;99.90;;;;;;4965832;28;20024;-89
2022/12/08 06:57:05;;;;;;;11.57;6.07;;;5.60;99.90;;;;;;4989178;28;20278;-89
2022/12/08 06:59:31;;;;;;;11.02;5.35;;;5.60;99.90;;;;;;4977861;28;20476;-89
2022/12/08 07:01:57;;;;;;;12.07;5.53;;;5.60;99.90;;;;;;4980921;28;20025;-89
2022/12/08 07:04:22;;;;;;;11.07;5.50;;;5.50;99.90;;;;;;5007920;28;20501;-90
2022/12/08 07:06:48;;;;;;;9.20;4.73;;;5.60;99.90;;;;;;5007550;28;20313;-89
2022/12/08 07:09:14;;;;;;;11.00;5.07;;;5.60;99.90;;;;;;5006535;28;20054;-88
2022/12/08 07:11:39;;;;;;;8.87;4.60;;;5.60;99.90;;;;;;4968496;28;20112;-89
2022/12/08 07:14:05;;;;;;;10.20;5.30;;;5.60;99.90;;;;;;5009086;28;20020;-89
2022/12/08 07:16:31;;;;;;;9.40;4.93;;;5.60;99.90;;;;;;4998412;28;20632;-88
2022/12/08 07:18:57;;;;;;;9.23;5.30;;;5.60;99.90;;;;;;5003060;28;20103;-89
2022/12/08 07:21:22;;;;;;;9.77;5.00;;;5.60;99.90;;;;;;4994255;28;20013;-89
2022/12/08 07:23:48;;;;;;;9.90;4.80;;;5.60;99.90;;;;;;4998335;28;20629;-89
2022/12/08 07:26:14;;;;;;;8.73;4.17;;;5.60;99.90;;;;;;4998183;28;20279;-90
2022/12/08 07:28:41;;;;;;;9.10;4.90;;;5.60;99.90;;;;;;4984217;28;20030;-89
2022/12/08 07:31:16;;;;;;;10.02;4.90;;;5.60;99.90;;;;;;4993051;28;20033;-88
2022/12/08 07:33:42;;;;;;;8.73;4.38;;;5.60;99.90;;;;;;5021980;28;20025;-89
2022/12/08 07:36:08;;;;;;;10.10;4.60;;;5.60;99.90;;;;;;5011539;28;20021;-90
2022/12/08 07:38:34;;;;;;;7.97;4.20;;;5.60;99.90;;;;;;5009901;28;20409;-88
2022/12/08 07:41:00;;;;;;;10.00;4.53;;;5.60;99.90;;;;;;4988050;28;21184;-90
2022/12/08 07:43:26;;;;;;;7.63;3.90;;;5.60;99.90;;;;;;4995216;28;20527;-89
2022/12/08 07:45:51;;;;;;;9.00;3.93;;;5.60;99.90;;;;;;4978761;28;20190;-88
2022/12/08 07:48:18;;;;;;;8.77;4.20;;;5.70;99.90;;;;;;4981756;28;20026;-89
2022/12/08 07:50:45;;;;;;;8.43;4.30;;;5.70;99.90;;;;;;5003777;28;20062;-90
2022/12/08 07:53:11;;;;;;;7.53;3.70;;;5.60;99.90;;;;;;4997242;28;20021;-88
2022/12/08 07:55:42;;;;;;;7.90;4.05;;;5.60;99.90;;;;;;4966383;28;20040;-90
2022/12/08 07:58:08;;;;;;;7.82;3.60;;;5.60;99.90;;;;;;5006284;28;20084;-89
2022/12/08 08:00:34;;;;;;;7.00;3.75;;;5.70;99.90;;;;;;4996309;28;20029;-90
2022/12/08 08:02:59;;;;;;;8.00;4.10;;;5.70;99.90;;;;;;4993637;28;20307;-90
2022/12/08 08:05:25;;;;;;;7.13;3.83;;;5.70;99.90;;;;;;5006149;28;20132;-89
2022/12/08 08:07:51;;;;;;;7.03;3.93;;;5.70;99.90;;;;;;4992449;28;20059;-89
2022/12/08 08:10:16;;;;;;;8.68;4.20;;;5.70;99.90;;;;;;4983532;28;20548;-90
2022/12/08 08:12:42;;;;;;;8.23;4.20;;;5.70;99.90;;;;;;4962872;28;20024;-90
2022/12/08 08:15:13;;;;;;;8.70;4.65;;;5.80;99.90;;;;;;4987879;28;20021;-89
2022/12/08 08:17:38;;;;;;;7.90;3.70;;;5.70;99.90;;;;;;4995355;28;20029;-88
2022/12/08 08:20:07;;;;;;;6.80;3.70;;;5.80;99.90;;;;;;5015023;28;20236;-89
2022/12/08 08:22:33;;;;;;;8.23;4.28;;;5.80;99.90;;;;;;5000843;28;20083;-89
2022/12/08 08:24:59;;;;;;;10.45;4.43;;;5.80;99.90;;;;;;4997292;28;20112;-88
2022/12/08 08:27:25;;;;;;;6.57;3.70;;;5.80;99.90;;;;;;4973855;28;20114;-89
2022/12/08 08:29:52;;;;;;;6.78;3.80;;;5.80;99.90;;;;;;4993243;28;20128;-87
2022/12/08 08:32:18;;;;;;;8.27;4.90;;;5.80;99.90;;;;;;4998969;28;20223;-89
2022/12/08 08:34:43;;;;;;;7.57;4.47;;;5.90;99.90;;;;;;5026962;28;20345;-89
2022/12/08 08:37:09;;;;;;;9.40;4.43;;;5.90;99.90;;;;;;4996231;28;20116;-89
2022/12/08 08:39:35;;;;;;;11.55;5.25;;;5.90;99.90;;;;;;4993272;28;20116;-89
2022/12/08 08:42:00;;;;;;;10.47;4.50;;;5.90;99.90;;;;;;4984818;28;20035;-89
2022/12/08 08:44:26;;;;;;;9.63;4.97;;;5.90;99.90;;;;;;4981293;28;20124;-89
2022/12/08 08:46:53;;;;;;;8.73;5.03;;;5.90;99.90;;;;;;4991241;28;20036;-89
2022/12/08 08:49:19;;;;;;;10.50;5.10;;;5.90;99.90;;;;;;4996223;28;20020;-89
2022/12/08 08:51:45;;;;;;;9.27;4.68;;;5.90;99.90;;;;;;5003178;28;20033;-90
2022/12/08 08:54:11;;;;;;;9.55;4.35;;;5.90;99.90;;;;;;5022005;28;20099;-88
2022/12/08 08:56:36;;;;;;;10.70;5.00;;;6.00;99.90;;;;;;4991051;28;20035;-89
2022/12/08 08:59:02;;;;;;;9.27;5.43;;;6.00;99.90;;;;;;4973939;28;20177;-87
2022/12/08 09:01:28;;;;;;;11.45;5.30;;;6.00;99.90;;;;;;5017483;28;20025;-89
2022/12/08 09:03:55;;;;;;;10.77;5.30;;;6.00;99.90;;;;;;4987825;28;20028;-89
2022/12/08 09:06:22;;;;;;;11.10;4.88;;;6.00;99.90;;;;;;5013416;28;20378;-89
2022/12/08 09:08:48;;;;;;;12.38;6.13;;;6.00;99.90;;;;;;5010437;28;20025;-88
2022/12/08 09:11:14;;;;;;;10.82;5.25;;;6.00;99.90;;;;;;5015513;28;20053;-90
2022/12/08 09:13:41;;;;;;;7.97;4.17;;;6.00;99.90;;;;;;4997051;28;20102;-89
2022/12/08 09:16:07;;;;;;;8.82;4.75;;;6.00;99.90;;;;;;4988891;28;20235;-90
2022/12/08 09:18:33;;;;;;;9.25;4.18;;;6.00;99.90;;;;;;4976417;28;20418;-89
2022/12/08 09:21:07;;;;;;;8.05;4.15;;;6.10;99.90;;;;;;5009713;28;20691;-88
2022/12/08 09:23:34;;;;;;;9.30;4.73;;;6.10;99.90;;;;;;4994962;28;20573;-89
2022/12/08 09:26:00;;;;;;;9.45;4.65;;;6.10;99.90;;;;;;4988725;28;20525;-89
2022/12/08 09:28:25;;;;;;;8.68;4.30;;;6.10;99.90;;;;;;4982046;28;20029;-88
2022/12/08 09:30:51;;;;;;;9.20;4.82;;;6.10;99.90;;;;;;4984621;28;20032;-89
2022/12/08 09:33:17;;;;;;;8.50;4.80;;;6.20;99.90;;;;;;5018845;28;20031;-88
2022/12/08 09:35:43;;;;;;;9.57;4.63;;;6.20;99.90;;;;;;4996200;28;20096;-88
2022/12/08 09:38:08;;;;;;;8.50;4.43;;;6.30;99.90;;;;;;4997854;28;20618;-89
2022/12/08 09:40:46;;;;;;;9.77;4.57;;;6.30;99.90;;;;;;4996366;28;20112;-89
2022/12/08 09:43:32;;;;;;;8.60;4.10;;;6.30;99.90;;;;;;5003360;28;20142;-89
2022/12/08 09:45:59;;;;;;;9.77;4.40;;;6.40;99.90;;;;;;4992068;28;20241;-89
2022/12/08 09:48:33;;;;;;;7.45;4.32;;;6.50;99.90;;;;;;4995694;28;20029;-88
2022/12/08 09:50:58;;;;;;;9.13;4.88;;;6.50;99.90;;;;;;4998202;28;20021;-89
2022/12/08 09:53:47;;;;;;;8.63;4.50;;;6.60;99.90;;;;;;5003922;28;20377;-88
2022/12/08 09:56:20;;;;;;;8.60;4.70;;;6.60;99.90;;;;;;4991668;28;20353;-89
2022/12/08 09:58:51;;;;;;;8.80;4.13;;;6.80;99.90;;;;;;5002402;28;20526;-88
2022/12/08 10:01:21;;;;;;;8.35;4.50;;;6.90;99.90;;;;;;4970208;28;20021;-88
2022/12/08 10:03:47;;;;;;;11.20;4.37;;;7.10;99.90;;;;;;4992863;28;20037;-88
2022/12/08 10:06:31;;;;;;;6.22;3.88;;;7.20;99.90;;;;;;4999624;28;20033;-88
2022/12/08 10:09:16;;;;;;;7.38;3.90;;;7.20;99.90;;;;;;5022420;28;20127;-88
2022/12/08 10:11:57;;;;;;;7.85;4.05;;;7.20;99.90;;;;;;5006684;28;20036;-87
2022/12/08 10:14:32;;;;;;;9.02;4.43;;;7.20;99.90;;;;;;4992121;28;20048;-88
2022/12/08 10:17:09;;;;;;;8.07;4.00;;;7.20;99.90;;;;;;4968555;28;20326;-88
2022/12/08 10:19:37;;;;;;;9.20;4.50;;;7.20;99.90;;;;;;5017268;28;20064;-88
2022/12/08 10:22:17;;;;;;;10.93;5.10;;;7.20;99.90;;;;;;5001565;28;20321;-88
2022/12/08 10:25:00;;;;;;;10.02;4.93;;;7.10;99.90;;;;;;5013719;28;20097;-87
2022/12/08 10:27:25;;;;;;;7.93;4.30;;;7.10;99.90;;;;;;5010086;28;20246;-88
2022/12/08 10:29:51;;;;;;;11.83;5.67;;;7.10;99.90;;;;;;5003660;28;20037;-88
2022/12/08 10:32:20;;;;;;;11.30;5.47;;;7.10;99.90;;;;;;4976378;28;20016;-88
2022/12/08 10:35:03;;;;;;;11.40;5.57;;;7.10;99.90;;;;;;5017149;28;20029;-88
2022/12/08 10:37:29;;;;;;;10.65;5.72;;;7.20;99.90;;;;;;5008977;28;20492;-89
2022/12/08 10:40:16;;;;;;;12.05;6.20;;;7.40;99.90;;;;;;5001536;28;20255;-86
2022/12/08 10:42:52;;;;;;;12.50;6.40;;;7.60;99.90;;;;;;4998896;28;20065;-86
2022/12/08 10:45:42;;;;;;;10.73;5.80;;;8.00;99.90;;;;;;4981439;28;20024;-88
2022/12/08 10:48:30;;;;;;;10.13;5.60;;;8.40;99.90;;;;;;4987379;28;20811;-88
2022/12/08 10:50:57;;;;;;;10.98;5.95;;;8.90;99.90;;;;;;5015984;28;20324;-87
2022/12/08 10:53:43;;;;;;;10.02;5.63;;;9.30;99.90;;;;;;4996992;28;20017;-87
2022/12/08 10:56:14;;;;;;;10.43;5.37;;;9.80;99.90;;;;;;4999983;28;20021;-87
2022/12/08 10:58:42;;;;;;;9.02;5.53;;;10.40;99.90;;;;;;4995394;28;20025;-86
2022/12/08 11:01:32;;;;;;;10.20;6.05;;;10.80;99.90;;;;;;4979231;28;20028;-85
2022/12/08 11:04:05;;;;;;;8.52;5.18;;;11.30;99.90;;;;;;5014027;28;20533;-85
2022/12/08 11:06:38;;;;;;;11.40;6.25;;;11.70;99.90;;;;;;4996735;28;20935;-87
2022/12/08 11:09:29;;;;;;;12.93;5.77;;;12.10;99.90;;;;;;4980654;28;20729;-87
2022/12/08 11:12:05;;;;;;;9.73;5.97;;;12.50;99.90;;;;;;4990592;28;20428;-88
2022/12/08 11:14:45;;;;;;;9.85;5.30;;;12.70;99.90;;;;;;5012774;28;20032;-87
2022/12/08 11:17:25;;;;;;;9.10;5.20;;;12.90;99.90;;;;;;4957178;28;20036;-87
2022/12/08 11:19:55;;;;;;;7.50;4.68;;;12.90;99.90;;;;;;4991937;28;20458;-88
2022/12/08 11:22:24;;;;;;;7.30;4.53;;;12.80;99.90;;;;;;4988116;28;20016;-86
2022/12/08 11:24:59;;;;;;;6.95;4.38;;;12.70;99.90;;;;;;4989112;28;20425;-88
2022/12/08 11:27:25;;;;;;;7.47;4.50;;;12.40;99.90;;;;;;5008251;28;20031;-88
2022/12/08 11:29:50;;;;;;;7.78;4.45;;;12.10;99.90;;;;;;4980176;28;20017;-88
2022/12/08 11:32:16;;;;;;;7.00;4.07;;;11.80;99.90;;;;;;4952358;28;20869;-87
2022/12/08 11:34:47;;;;;;;7.95;3.97;;;11.60;99.90;;;;;;4984174;28;20027;-87
2022/12/08 11:37:30;;;;;;;8.73;4.47;;;11.30;99.90;;;;;;4990894;28;20499;-86
2022/12/08 11:39:59;;;;;;;7.63;4.30;;;11.00;99.90;;;;;;4995547;28;20470;-86
2022/12/08 11:42:36;;;;;;;10.45;4.38;;;10.80;99.90;;;;;;4992433;28;20024;-85
2022/12/08 11:45:10;;;;;;;7.10;3.70;;;10.60;99.90;;;;;;4982714;28;20024;-86
2022/12/08 11:47:53;;;;;;;6.63;3.40;;;10.40;99.90;;;;;;4994309;28;20495;-86
2022/12/08 11:50:24;;;;;;;5.70;3.58;;;10.20;99.90;;;;;;4997399;28;20860;-86
2022/12/08 11:52:51;;;;;;;6.05;3.67;;;10.00;99.90;;;;;;5006295;28;20017;-86
2022/12/08 11:55:38;;;;;;;6.53;4.03;;;9.90;99.90;;;;;;5026294;28;20064;-87
2022/12/08 11:58:25;;;;;;;7.47;3.80;;;9.80;99.90;;;;;;5010635;28;20658;-87
2022/12/08 12:00:51;;;;;;;5.55;3.35;;;9.60;99.90;;;;;;5036332;28;20393;-87
2022/12/08 12:03:28;;;;;;;5.82;3.50;;;9.60;99.90;;;;;;4955434;28;21508;-87
2022/12/08 12:06:08;;;;;;;9.13;4.50;;;9.50;99.90;;;;;;5001725;28;20485;-87
2022/12/08 12:08:59;;;;;;;6.40;3.75;;;9.50;99.90;;;;;;5002021;28;20549;-86
2022/12/08 12:12:15;;;;;;;7.75;3.60;;;9.40;99.90;;;;;;5012698;28;20421;-87
2022/12/08 12:15:02;;;;;;;6.65;3.50;;;9.40;99.90;;;;;;4983716;28;20032;-87
2022/12/08 12:17:49;;;;;;;6.72;3.70;;;9.30;99.90;;;;;;5020405;28;20068;-87
2022/12/08 12:21:00;;;;;;;7.40;3.73;;;9.30;99.90;;;;;;4996703;28;20294;-87
2022/12/08 12:23:43;;;;;;;6.47;3.80;;;9.20;99.90;;;;;;4985161;28;20056;-87
2022/12/08 12:26:23;;;;;;;5.82;3.35;;;9.20;99.90;;;;;;4996872;28;20278;-87
2022/12/08 12:28:55;;;;;;;8.60;4.43;;;9.20;99.90;;;;;;4998968;28;20404;-87
2022/12/08 12:31:35;;;;;;;5.68;3.60;;;9.20;99.90;;;;;;4999081;28;20249;-87
2022/12/08 12:34:26;;;;;;;6.20;3.60;;;9.20;99.90;;;;;;5007372;28;20104;-87
2022/12/08 12:37:04;;;;;;;6.88;3.25;;;9.20;99.90;;;;;;5026234;28;20603;-87
2022/12/08 12:39:34;;;;;;;6.45;3.78;;;9.30;99.90;;;;;;4991962;28;20009;-87
2022/12/08 12:42:02;;;;;;;6.03;3.75;;;9.30;99.90;;;;;;4996580;28;20040;-86
2022/12/08 12:44:27;;;;;;;6.80;4.07;;;9.40;99.90;;;;;;5026106;28;20054;-87
2022/12/08 12:46:57;;;;;;;6.07;3.90;;;9.50;99.90;;;;;;5009926;28;20459;-87
2022/12/08 12:49:42;;;;;;;7.30;4.07;;;9.60;99.90;;;;;;5032995;28;20612;-87
2022/12/08 12:52:14;;;;;;;6.13;3.55;;;9.70;99.90;;;;;;4965660;28;20041;-87
2022/12/08 12:54:48;;;;;;;6.17;3.40;;;9.70;99.90;;;;;;4987849;28;20022;-87
2022/12/08 12:57:17;;;;;;;5.68;3.40;;;9.70;99.90;;;;;;4985980;28;20116;-86
2022/12/08 12:59:50;;;;;;;7.43;3.53;;;9.80;99.90;;;;;;5021110;28;20045;-87
2022/12/08 13:02:19;;;;;;;6.13;3.20;;;9.80;99.90;;;;;;4988077;28;20294;-87
2022/12/08 13:05:08;;;;;;;5.75;3.30;;;9.80;99.90;;;;;;4987264;28;20136;-87
2022/12/08 13:07:54;;;;;;;5.50;3.30;;;9.80;99.90;;;;;;4964199;28;20611;-86
2022/12/08 13:10:25;;;;;;;5.50;2.90;;;9.70;99.90;;;;;;4998075;28;20240;-87
2022/12/08 13:13:09;;;;;;;5.18;2.90;;;9.70;99.90;;;;;;4999916;28;20489;-87
2022/12/08 13:15:39;;;;;;;5.10;2.80;;;9.60;99.90;;;;;;5014584;28;20037;-88